sensor_id;sensor_type;location;lat;lon;timestamp;pressure;altitude;pressure_sealevel;temperature;humidity
57900;BME280;60605;53.716;19.940;2023-04-03T00:02:52;101332.85;;;0.03;83.77
57900;BME280;60605;53.716;19.940;2023-04-03T00:07:54;101334.84;;;0.01;83.46
57900;BME280;60605;53.716;19.940;2023-04-03T00:12:56;101336.80;;;0.00;82.96
57900;BME280;60605;53.716;19.940;2023-04-03T00:17:58;101339.72;;;0.02;82.45
57900;BME280;60605;53.716;19.940;2023-04-03T00:23:02;101344.90;;;0.05;81.98
57900;BME280;60605;53.716;19.940;2023-04-03T00:28:04;101348.44;;;0.04;81.92
57900;BME280;60605;53.716;19.940;2023-04-03T00:33:06;101347.73;;;-0.01;82.01
57900;BME280;60605;53.716;19.940;2023-04-03T00:38:08;101351.00;;;-0.08;82.15
57900;BME280;60605;53.716;19.940;2023-04-03T00:43:20;101352.23;;;-0.13;82.16
57900;BME280;60605;53.716;19.940;2023-04-03T00:48:44;101354.39;;;-0.14;81.97
57900;BME280;60605;53.716;19.940;2023-04-03T00:53:49;101355.73;;;-0.12;81.95
57900;BME280;60605;53.716;19.940;2023-04-03T00:58:59;101357.20;;;-0.19;82.10
57900;BME280;60605;53.716;19.940;2023-04-03T01:04:04;101362.00;;;-0.25;82.45
57900;BME280;60605;53.716;19.940;2023-04-03T01:09:07;101361.97;;;-0.28;82.71
57900;BME280;60605;53.716;19.940;2023-04-03T01:14:09;101368.09;;;-0.28;82.95
57900;BME280;60605;53.716;19.940;2023-04-03T01:19:15;101367.98;;;-0.25;82.83
57900;BME280;60605;53.716;19.940;2023-04-03T01:24:29;101370.53;;;-0.23;82.69
57900;BME280;60605;53.716;19.940;2023-04-03T01:29:33;101371.27;;;-0.24;82.73
57900;BME280;60605;53.716;19.940;2023-04-03T01:34:35;101375.64;;;-0.28;82.88
57900;BME280;60605;53.716;19.940;2023-04-03T01:39:37;101382.08;;;-0.31;83.31
57900;BME280;60605;53.716;19.940;2023-04-03T01:44:39;101386.91;;;-0.34;83.46
57900;BME280;60605;53.716;19.940;2023-04-03T01:49:41;101388.95;;;-0.42;83.76
57900;BME280;60605;53.716;19.940;2023-04-03T01:54:43;101393.08;;;-0.49;84.13
57900;BME280;60605;53.716;19.940;2023-04-03T01:59:45;101395.66;;;-0.57;84.47
57900;BME280;60605;53.716;19.940;2023-04-03T02:04:47;101396.05;;;-0.63;84.85
57900;BME280;60605;53.716;19.940;2023-04-03T02:09:49;101399.30;;;-0.70;85.16
57900;BME280;60605;53.716;19.940;2023-04-03T02:14:51;101399.02;;;-0.76;85.78
57900;BME280;60605;53.716;19.940;2023-04-03T02:19:53;101403.33;;;-0.80;86.10
57900;BME280;60605;53.716;19.940;2023-04-03T02:24:55;101407.37;;;-0.85;86.34
57900;BME280;60605;53.716;19.940;2023-04-03T02:29:57;101410.20;;;-0.91;86.57
57900;BME280;60605;53.716;19.940;2023-04-03T02:34:59;101409.27;;;-0.95;87.18
57900;BME280;60605;53.716;19.940;2023-04-03T02:40:01;101412.50;;;-0.96;87.56
57900;BME280;60605;53.716;19.940;2023-04-03T02:45:04;101417.82;;;-0.98;87.66
57900;BME280;60605;53.716;19.940;2023-04-03T02:50:06;101425.81;;;-1.01;87.96
57900;BME280;60605;53.716;19.940;2023-04-03T02:55:08;101432.62;;;-1.06;88.17
57900;BME280;60605;53.716;19.940;2023-04-03T03:00:11;101435.56;;;-1.09;88.32
57900;BME280;60605;53.716;19.940;2023-04-03T03:05:13;101434.58;;;-1.12;88.49
57900;BME280;60605;53.716;19.940;2023-04-03T03:10:16;101435.88;;;-1.09;88.34
57900;BME280;60605;53.716;19.940;2023-04-03T03:15:17;101436.26;;;-1.09;88.01
57900;BME280;60605;53.716;19.940;2023-04-03T03:20:20;101441.11;;;-1.08;87.81
57900;BME280;60605;53.716;19.940;2023-04-03T03:25:22;101440.31;;;-1.10;87.46
57900;BME280;60605;53.716;19.940;2023-04-03T03:30:24;101446.89;;;-1.13;87.33
57900;BME280;60605;53.716;19.940;2023-04-03T03:35:26;101448.17;;;-1.14;87.13
57900;BME280;60605;53.716;19.940;2023-04-03T03:40:29;101447.59;;;-1.19;86.82
57900;BME280;60605;53.716;19.940;2023-04-03T03:45:30;101450.50;;;-1.21;86.67
57900;BME280;60605;53.716;19.940;2023-04-03T03:50:33;101449.56;;;-1.25;86.43
57900;BME280;60605;53.716;19.940;2023-04-03T03:55:35;101452.88;;;-1.24;86.11
57900;BME280;60605;53.716;19.940;2023-04-03T04:00:37;101453.05;;;-1.25;85.81
57900;BME280;60605;53.716;19.940;2023-04-03T04:05:39;101456.30;;;-1.22;85.52
57900;BME280;60605;53.716;19.940;2023-04-03T04:10:41;101461.04;;;-1.22;85.39
57900;BME280;60605;53.716;19.940;2023-04-03T04:15:43;101465.99;;;-1.24;85.37
57900;BME280;60605;53.716;19.940;2023-04-03T04:20:45;101468.13;;;-1.25;85.43
57900;BME280;60605;53.716;19.940;2023-04-03T04:25:48;101469.87;;;-1.24;85.43
57900;BME280;60605;53.716;19.940;2023-04-03T04:30:50;101473.59;;;-1.20;85.05
57900;BME280;60605;53.716;19.940;2023-04-03T04:35:53;101478.79;;;-1.13;84.91
57900;BME280;60605;53.716;19.940;2023-04-03T04:40:55;101482.09;;;-1.07;84.61
57900;BME280;60605;53.716;19.940;2023-04-03T04:46:08;101487.20;;;-0.97;83.60
57900;BME280;60605;53.716;19.940;2023-04-03T04:51:11;101493.64;;;-0.80;83.14
57900;BME280;60605;53.716;19.940;2023-04-03T04:56:13;101494.76;;;-0.56;82.56
57900;BME280;60605;53.716;19.940;2023-04-03T05:01:15;101496.45;;;-0.20;80.84
57900;BME280;60605;53.716;19.940;2023-04-03T05:06:17;101501.56;;;-0.02;78.85
57900;BME280;60605;53.716;19.940;2023-04-03T05:11:19;101504.95;;;0.21;77.39
57900;BME280;60605;53.716;19.940;2023-04-03T05:16:26;101513.97;;;1.37;75.30
57900;BME280;60605;53.716;19.940;2023-04-03T05:21:28;101512.02;;;3.02;69.56
57900;BME280;60605;53.716;19.940;2023-04-03T05:26:34;101515.74;;;4.70;66.09
57900;BME280;60605;53.716;19.940;2023-04-03T05:31:36;101522.08;;;6.10;60.26
57900;BME280;60605;53.716;19.940;2023-04-03T05:36:38;101525.39;;;7.05;56.74
57900;BME280;60605;53.716;19.940;2023-04-03T05:41:40;101526.83;;;8.35;53.64
57900;BME280;60605;53.716;19.940;2023-04-03T05:46:42;101531.30;;;9.11;48.44
57900;BME280;60605;53.716;19.940;2023-04-03T05:51:44;101533.55;;;9.62;46.86
57900;BME280;60605;53.716;19.940;2023-04-03T05:56:46;101535.20;;;10.14;44.28
57900;BME280;60605;53.716;19.940;2023-04-03T06:01:48;101532.71;;;10.66;44.53
57900;BME280;60605;53.716;19.940;2023-04-03T06:06:52;101531.73;;;11.32;40.82
57900;BME280;60605;53.716;19.940;2023-04-03T06:11:55;101534.67;;;11.46;39.01
57900;BME280;60605;53.716;19.940;2023-04-03T06:16:57;101533.42;;;11.61;38.83
57900;BME280;60605;53.716;19.940;2023-04-03T06:22:01;101538.39;;;11.95;37.30
57900;BME280;60605;53.716;19.940;2023-04-03T06:27:05;101543.11;;;11.88;36.79
57900;BME280;60605;53.716;19.940;2023-04-03T06:32:07;101546.91;;;12.59;36.54
57900;BME280;60605;53.716;19.940;2023-04-03T06:37:17;101544.79;;;13.21;35.13
57900;BME280;60605;53.716;19.940;2023-04-03T06:42:19;101557.66;;;14.08;34.91
57900;BME280;60605;53.716;19.940;2023-04-03T06:47:21;101544.86;;;14.89;32.70
57900;BME280;60605;53.716;19.940;2023-04-03T06:52:23;101546.55;;;15.03;31.84
57900;BME280;60605;53.716;19.940;2023-04-03T06:57:25;101555.69;;;14.96;30.91
57900;BME280;60605;53.716;19.940;2023-04-03T07:02:27;101565.34;;;14.86;30.68
57900;BME280;60605;53.716;19.940;2023-04-03T07:07:30;101567.85;;;14.84;30.63
57900;BME280;60605;53.716;19.940;2023-04-03T07:12:32;101569.88;;;14.78;29.89
57900;BME280;60605;53.716;19.940;2023-04-03T07:17:33;101577.64;;;15.12;30.94
57900;BME280;60605;53.716;19.940;2023-04-03T07:22:35;101577.11;;;16.31;29.89
57900;BME280;60605;53.716;19.940;2023-04-03T07:27:38;101584.55;;;16.87;28.09
57900;BME280;60605;53.716;19.940;2023-04-03T07:32:40;101585.65;;;16.25;27.11
57900;BME280;60605;53.716;19.940;2023-04-03T07:37:43;101588.88;;;16.17;27.47
57900;BME280;60605;53.716;19.940;2023-04-03T07:42:45;101585.98;;;16.10;26.89
57900;BME280;60605;53.716;19.940;2023-04-03T07:47:47;101590.16;;;16.22;27.56
57900;BME280;60605;53.716;19.940;2023-04-03T07:52:49;101593.30;;;16.96;26.73
57900;BME280;60605;53.716;19.940;2023-04-03T07:57:52;101587.15;;;16.97;26.23
57900;BME280;60605;53.716;19.940;2023-04-03T08:02:54;101593.05;;;16.75;26.50
57900;BME280;60605;53.716;19.940;2023-04-03T08:07:56;101595.48;;;17.31;27.24
57900;BME280;60605;53.716;19.940;2023-04-03T08:12:58;101597.74;;;18.21;24.75
57900;BME280;60605;53.716;19.940;2023-04-03T08:18:00;101594.45;;;16.70;25.33
57900;BME280;60605;53.716;19.940;2023-04-03T08:23:02;101597.19;;;15.86;26.86
57900;BME280;60605;53.716;19.940;2023-04-03T08:28:05;101598.77;;;14.61;27.31
57900;BME280;60605;53.716;19.940;2023-04-03T08:33:09;101599.23;;;13.71;28.69
57900;BME280;60605;53.716;19.940;2023-04-03T08:38:11;101602.88;;;13.47;29.35
57900;BME280;60605;53.716;19.940;2023-04-03T08:48:29;101598.20;;;11.20;32.62
57900;BME280;60605;53.716;19.940;2023-04-03T08:53:35;101605.52;;;11.02;32.39
57900;BME280;60605;53.716;19.940;2023-04-03T08:58:50;101610.48;;;10.31;33.82
57900;BME280;60605;53.716;19.940;2023-04-03T09:03:54;101608.04;;;10.33;33.56
57900;BME280;60605;53.716;19.940;2023-04-03T09:09:35;101605.17;;;9.98;33.58
57900;BME280;60605;53.716;19.940;2023-04-03T09:19:57;101606.13;;;10.30;33.02
57900;BME280;60605;53.716;19.940;2023-04-03T09:30:20;101594.55;;;15.62;27.67
57900;BME280;60605;53.716;19.940;2023-04-03T09:35:26;101602.86;;;18.26;25.06
57900;BME280;60605;53.716;19.940;2023-04-03T09:41:05;101592.41;;;19.69;23.54
57900;BME280;60605;53.716;19.940;2023-04-03T09:51:30;101595.64;;;16.19;25.33
57900;BME280;60605;53.716;19.940;2023-04-03T09:56:32;101591.02;;;17.14;25.60
57900;BME280;60605;53.716;19.940;2023-04-03T10:01:38;101587.58;;;18.72;23.40
57900;BME280;60605;53.716;19.940;2023-04-03T10:06:44;101580.96;;;18.92;23.66
57900;BME280;60605;53.716;19.940;2023-04-03T10:17:19;101577.35;;;17.33;23.75
57900;BME280;60605;53.716;19.940;2023-04-03T10:38:21;101562.62;;;10.51;32.51
57900;BME280;60605;53.716;19.940;2023-04-03T10:43:38;101557.23;;;9.76;33.07
57900;BME280;60605;53.716;19.940;2023-04-03T10:54:00;101543.14;;;8.26;34.41
57900;BME280;60605;53.716;19.940;2023-04-03T10:59:16;101539.33;;;7.78;35.67
57900;BME280;60605;53.716;19.940;2023-04-03T11:04:21;101531.98;;;7.51;36.77
57900;BME280;60605;53.716;19.940;2023-04-03T11:09:33;101530.98;;;7.50;36.86
57900;BME280;60605;53.716;19.940;2023-04-03T11:14:39;101524.94;;;7.47;37.86
57900;BME280;60605;53.716;19.940;2023-04-03T11:25:08;101525.09;;;7.07;37.25
57900;BME280;60605;53.716;19.940;2023-04-03T11:36:07;101516.73;;;6.91;38.42
57900;BME280;60605;53.716;19.940;2023-04-03T11:41:31;101514.80;;;6.88;38.90
57900;BME280;60605;53.716;19.940;2023-04-03T11:46:54;101510.27;;;7.14;38.51
57900;BME280;60605;53.716;19.940;2023-04-03T11:51:59;101507.58;;;7.20;39.81
57900;BME280;60605;53.716;19.940;2023-04-03T12:02:41;101504.46;;;7.32;40.54
57900;BME280;60605;53.716;19.940;2023-04-03T12:08:29;101507.69;;;7.26;39.78
57900;BME280;60605;53.716;19.940;2023-04-03T12:13:32;101496.75;;;7.03;38.81
57900;BME280;60605;53.716;19.940;2023-04-03T12:45:49;101490.38;;;7.11;39.87
57900;BME280;60605;53.716;19.940;2023-04-03T12:50:55;101489.79;;;6.98;41.66
57900;BME280;60605;53.716;19.940;2023-04-03T12:56:28;101487.40;;;6.91;42.11
57900;BME280;60605;53.716;19.940;2023-04-03T13:01:33;101494.05;;;6.96;42.48
57900;BME280;60605;53.716;19.940;2023-04-03T13:06:41;101495.02;;;7.03;42.31
57900;BME280;60605;53.716;19.940;2023-04-03T13:11:44;101503.82;;;6.80;41.47
57900;BME280;60605;53.716;19.940;2023-04-03T13:22:15;101484.52;;;6.57;43.49
57900;BME280;60605;53.716;19.940;2023-04-03T13:27:22;101476.60;;;6.94;43.39
57900;BME280;60605;53.716;19.940;2023-04-03T13:32:26;101479.02;;;6.70;42.31
57900;BME280;60605;53.716;19.940;2023-04-03T13:37:32;101482.28;;;6.39;43.40
57900;BME280;60605;53.716;19.940;2023-04-03T13:42:39;101480.34;;;6.50;44.27
57900;BME280;60605;53.716;19.940;2023-04-03T13:47:45;101483.96;;;6.40;43.37
57900;BME280;60605;53.716;19.940;2023-04-03T13:53:11;101478.02;;;6.25;44.41
57900;BME280;60605;53.716;19.940;2023-04-03T14:08:35;101484.30;;;6.02;44.70
57900;BME280;60605;53.716;19.940;2023-04-03T14:13:45;101484.79;;;5.97;44.38
57900;BME280;60605;53.716;19.940;2023-04-03T14:18:49;101486.16;;;5.65;44.20
57900;BME280;60605;53.716;19.940;2023-04-03T14:23:52;101488.48;;;5.38;45.07
57900;BME280;60605;53.716;19.940;2023-04-03T14:28:55;101484.49;;;5.30;45.61
57900;BME280;60605;53.716;19.940;2023-04-03T14:33:57;101483.75;;;5.28;46.00
57900;BME280;60605;53.716;19.940;2023-04-03T14:38:59;101481.77;;;5.31;46.34
57900;BME280;60605;53.716;19.940;2023-04-03T14:44:04;101481.06;;;5.44;46.94
57900;BME280;60605;53.716;19.940;2023-04-03T14:49:14;101486.87;;;5.50;45.94
57900;BME280;60605;53.716;19.940;2023-04-03T14:54:20;101487.20;;;5.35;45.63
57900;BME280;60605;53.716;19.940;2023-04-03T14:59:27;101484.73;;;5.32;46.07
57900;BME280;60605;53.716;19.940;2023-04-03T15:04:29;101485.34;;;5.28;46.92
57900;BME280;60605;53.716;19.940;2023-04-03T15:09:32;101484.70;;;5.06;48.69
57900;BME280;60605;53.716;19.940;2023-04-03T15:14:34;101482.94;;;4.94;50.34
57900;BME280;60605;53.716;19.940;2023-04-03T15:19:39;101482.21;;;5.03;50.93
57900;BME280;60605;53.716;19.940;2023-04-03T15:24:42;101481.49;;;5.03;50.39
57900;BME280;60605;53.716;19.940;2023-04-03T15:29:44;101483.88;;;4.86;51.14
57900;BME280;60605;53.716;19.940;2023-04-03T15:34:47;101484.59;;;4.70;52.59
57900;BME280;60605;53.716;19.940;2023-04-03T15:39:49;101487.08;;;4.52;53.14
57900;BME280;60605;53.716;19.940;2023-04-03T15:44:51;101486.79;;;4.35;52.11
57900;BME280;60605;53.716;19.940;2023-04-03T15:49:54;101486.84;;;4.18;51.84
57900;BME280;60605;53.716;19.940;2023-04-03T15:54:56;101483.54;;;4.04;52.64
57900;BME280;60605;53.716;19.940;2023-04-03T15:59:59;101484.55;;;3.92;53.62
57900;BME280;60605;53.716;19.940;2023-04-03T16:05:02;101489.19;;;3.84;52.68
57900;BME280;60605;53.716;19.940;2023-04-03T16:10:07;101491.77;;;3.75;52.34
57900;BME280;60605;53.716;19.940;2023-04-03T16:15:10;101492.95;;;3.63;52.10
57900;BME280;60605;53.716;19.940;2023-04-03T16:20:14;101491.68;;;3.46;52.74
57900;BME280;60605;53.716;19.940;2023-04-03T16:25:18;101491.22;;;3.38;53.35
57900;BME280;60605;53.716;19.940;2023-04-03T16:30:21;101491.48;;;3.33;52.72
57900;BME280;60605;53.716;19.940;2023-04-03T16:35:24;101490.83;;;3.25;51.32
57900;BME280;60605;53.716;19.940;2023-04-03T16:40:26;101495.88;;;3.12;51.54
57900;BME280;60605;53.716;19.940;2023-04-03T16:45:28;101503.34;;;3.00;52.54
57900;BME280;60605;53.716;19.940;2023-04-03T16:50:31;101507.40;;;2.93;53.63
57900;BME280;60605;53.716;19.940;2023-04-03T16:55:33;101507.05;;;2.90;54.54
57900;BME280;60605;53.716;19.940;2023-04-03T17:00:35;101505.77;;;2.83;55.84
57900;BME280;60605;53.716;19.940;2023-04-03T17:05:37;101510.66;;;2.77;56.92
57900;BME280;60605;53.716;19.940;2023-04-03T17:10:40;101509.84;;;2.72;56.93
57900;BME280;60605;53.716;19.940;2023-04-03T17:15:42;101515.47;;;2.65;56.95
57900;BME280;60605;53.716;19.940;2023-04-03T17:20:44;101517.13;;;2.52;57.31
57900;BME280;60605;53.716;19.940;2023-04-03T17:25:46;101515.32;;;2.38;57.94
57900;BME280;60605;53.716;19.940;2023-04-03T17:30:49;101517.32;;;2.25;58.54
57900;BME280;60605;53.716;19.940;2023-04-03T17:35:52;101512.45;;;2.13;59.53
57900;BME280;60605;53.716;19.940;2023-04-03T17:40:57;101515.54;;;1.99;60.12
57900;BME280;60605;53.716;19.940;2023-04-03T17:46:06;101522.34;;;1.84;59.39
57900;BME280;60605;53.716;19.940;2023-04-03T17:51:12;101524.83;;;1.72;59.34
57900;BME280;60605;53.716;19.940;2023-04-03T17:56:25;101524.77;;;1.57;59.40
57900;BME280;60605;53.716;19.940;2023-04-03T18:01:33;101525.59;;;1.42;59.36
57900;BME280;60605;53.716;19.940;2023-04-03T18:06:42;101522.27;;;1.29;59.47
57900;BME280;60605;53.716;19.940;2023-04-03T18:11:46;101519.27;;;1.21;59.36
57900;BME280;60605;53.716;19.940;2023-04-03T18:16:48;101520.64;;;1.13;59.53
57900;BME280;60605;53.716;19.940;2023-04-03T18:21:54;101517.04;;;1.03;59.58
57900;BME280;60605;53.716;19.940;2023-04-03T18:26:59;101517.39;;;0.94;59.46
57900;BME280;60605;53.716;19.940;2023-04-03T18:32:04;101519.80;;;0.87;59.25
57900;BME280;60605;53.716;19.940;2023-04-03T18:37:08;101517.76;;;0.85;59.32
57900;BME280;60605;53.716;19.940;2023-04-03T18:42:14;101516.84;;;0.86;59.62
57900;BME280;60605;53.716;19.940;2023-04-03T18:47:17;101518.05;;;0.82;60.48
57900;BME280;60605;53.716;19.940;2023-04-03T18:52:19;101517.38;;;0.76;61.13
57900;BME280;60605;53.716;19.940;2023-04-03T18:57:23;101519.06;;;0.69;61.47
57900;BME280;60605;53.716;19.940;2023-04-03T19:02:27;101519.67;;;0.63;62.26
57900;BME280;60605;53.716;19.940;2023-04-03T19:07:31;101515.14;;;0.58;62.91
57900;BME280;60605;53.716;19.940;2023-04-03T19:12:33;101509.30;;;0.50;63.27
57900;BME280;60605;53.716;19.940;2023-04-03T19:17:36;101507.81;;;0.38;63.80
57900;BME280;60605;53.716;19.940;2023-04-03T19:22:39;101510.05;;;0.30;64.75
57900;BME280;60605;53.716;19.940;2023-04-03T19:27:42;101511.17;;;0.24;65.13
57900;BME280;60605;53.716;19.940;2023-04-03T19:32:45;101511.64;;;0.16;65.57
57900;BME280;60605;53.716;19.940;2023-04-03T19:37:47;101507.75;;;0.12;66.34
57900;BME280;60605;53.716;19.940;2023-04-03T19:42:51;101508.89;;;0.10;66.67
57900;BME280;60605;53.716;19.940;2023-04-03T19:47:55;101510.79;;;0.06;67.03
57900;BME280;60605;53.716;19.940;2023-04-03T19:53:02;101509.06;;;-0.00;67.50
57900;BME280;60605;53.716;19.940;2023-04-03T19:58:05;101514.64;;;-0.09;67.47
57900;BME280;60605;53.716;19.940;2023-04-03T20:03:09;101509.98;;;-0.21;67.72
57900;BME280;60605;53.716;19.940;2023-04-03T20:08:11;101504.91;;;-0.31;68.44
57900;BME280;60605;53.716;19.940;2023-04-03T20:13:15;101505.71;;;-0.38;68.98
57900;BME280;60605;53.716;19.940;2023-04-03T20:18:19;101504.66;;;-0.44;69.34
57900;BME280;60605;53.716;19.940;2023-04-03T20:23:22;101505.89;;;-0.49;69.70
57900;BME280;60605;53.716;19.940;2023-04-03T20:28:25;101503.77;;;-0.54;69.65
57900;BME280;60605;53.716;19.940;2023-04-03T20:33:28;101505.39;;;-0.59;69.97
57900;BME280;60605;53.716;19.940;2023-04-03T20:38:31;101501.55;;;-0.65;70.18
57900;BME280;60605;53.716;19.940;2023-04-03T20:43:32;101496.76;;;-0.74;70.48
57900;BME280;60605;53.716;19.940;2023-04-03T20:48:34;101491.77;;;-0.82;70.78
57900;BME280;60605;53.716;19.940;2023-04-03T20:53:38;101485.16;;;-0.88;71.03
57900;BME280;60605;53.716;19.940;2023-04-03T20:58:40;101487.66;;;-0.95;71.10
57900;BME280;60605;53.716;19.940;2023-04-03T21:03:44;101490.34;;;-1.02;71.42
57900;BME280;60605;53.716;19.940;2023-04-03T21:20:10;101488.73;;;-1.28;72.63
57900;BME280;60605;53.716;19.940;2023-04-03T21:25:12;101488.23;;;-1.34;72.78
57900;BME280;60605;53.716;19.940;2023-04-03T21:30:14;101493.22;;;-1.42;73.03
57900;BME280;60605;53.716;19.940;2023-04-03T21:35:16;101493.11;;;-1.50;73.18
57900;BME280;60605;53.716;19.940;2023-04-03T21:40:18;101492.34;;;-1.59;73.67
57900;BME280;60605;53.716;19.940;2023-04-03T21:45:21;101490.27;;;-1.66;74.02
57900;BME280;60605;53.716;19.940;2023-04-03T21:50:24;101494.30;;;-1.71;74.34
57900;BME280;60605;53.716;19.940;2023-04-03T21:55:26;101494.44;;;-1.76;74.69
57900;BME280;60605;53.716;19.940;2023-04-03T22:00:28;101489.38;;;-1.83;74.76
57900;BME280;60605;53.716;19.940;2023-04-03T22:05:30;101489.19;;;-1.88;75.28
57900;BME280;60605;53.716;19.940;2023-04-03T22:10:32;101484.99;;;-1.95;75.51
57900;BME280;60605;53.716;19.940;2023-04-03T22:15:37;101486.42;;;-2.02;75.97
57900;BME280;60605;53.716;19.940;2023-04-03T22:20:48;101485.41;;;-2.09;76.41
57900;BME280;60605;53.716;19.940;2023-04-03T22:26:16;101484.92;;;-2.17;76.83
57900;BME280;60605;53.716;19.940;2023-04-03T22:31:18;101482.17;;;-2.25;77.31
57900;BME280;60605;53.716;19.940;2023-04-03T22:36:21;101478.46;;;-2.29;77.96
57900;BME280;60605;53.716;19.940;2023-04-03T22:41:23;101479.70;;;-2.30;78.43
57900;BME280;60605;53.716;19.940;2023-04-03T22:46:25;101478.86;;;-2.30;78.92
57900;BME280;60605;53.716;19.940;2023-04-03T22:51:29;101472.54;;;-2.30;79.33
57900;BME280;60605;53.716;19.940;2023-04-03T22:56:31;101469.24;;;-2.31;79.17
57900;BME280;60605;53.716;19.940;2023-04-03T23:01:34;101466.77;;;-2.37;79.19
57900;BME280;60605;53.716;19.940;2023-04-03T23:06:39;101462.58;;;-2.43;79.42
57900;BME280;60605;53.716;19.940;2023-04-03T23:11:42;101460.32;;;-2.50;79.87
57900;BME280;60605;53.716;19.940;2023-04-03T23:16:44;101458.38;;;-2.56;80.36
57900;BME280;60605;53.716;19.940;2023-04-03T23:21:47;101455.91;;;-2.62;80.82
57900;BME280;60605;53.716;19.940;2023-04-03T23:26:49;101455.38;;;-2.67;81.45
57900;BME280;60605;53.716;19.940;2023-04-03T23:31:51;101449.80;;;-2.74;81.94
57900;BME280;60605;53.716;19.940;2023-04-03T23:36:53;101446.61;;;-2.79;82.52
57900;BME280;60605;53.716;19.940;2023-04-03T23:41:55;101441.79;;;-2.82;83.14
57900;BME280;60605;53.716;19.940;2023-04-03T23:46:57;101440.44;;;-2.84;83.49
57900;BME280;60605;53.716;19.940;2023-04-03T23:51:59;101439.22;;;-2.85;83.88
57900;BME280;60605;53.716;19.940;2023-04-03T23:57:01;101430.34;;;-2.86;84.18
